sensor_id;sensor_type;location;lat;lon;timestamp;temperature;humidity
12291;DHT22;6208;48.956;9.076;2023-02-23T00:02:37;10.70;99.90
12291;DHT22;6208;48.956;9.076;2023-02-23T00:05:22;11.00;99.90
12291;DHT22;6208;48.956;9.076;2023-02-23T00:08:06;10.00;99.90
12291;DHT22;6208;48.956;9.076;2023-02-23T00:10:50;10.10;99.90
12291;DHT22;6208;48.956;9.076;2023-02-23T00:13:42;10.40;99.90
12291;DHT22;6208;48.956;9.076;2023-02-23T00:16:29;10.20;99.90
12291;DHT22;6208;48.956;9.076;2023-02-23T00:19:13;11.00;99.90
12291;DHT22;6208;48.956;9.076;2023-02-23T00:21:57;10.60;99.90
12291;DHT22;6208;48.956;9.076;2023-02-23T00:24:42;10.40;99.90
12291;DHT22;6208;48.956;9.076;2023-02-23T00:27:26;10.50;99.90
12291;DHT22;6208;48.956;9.076;2023-02-23T00:30:15;10.60;99.90
12291;DHT22;6208;48.956;9.076;2023-02-23T00:33:01;10.80;99.90
12291;DHT22;6208;48.956;9.076;2023-02-23T00:35:46;11.00;99.90
12291;DHT22;6208;48.956;9.076;2023-02-23T00:38:30;11.50;99.90
12291;DHT22;6208;48.956;9.076;2023-02-23T00:41:19;11.00;99.90
12291;DHT22;6208;48.956;9.076;2023-02-23T00:44:06;10.90;99.90
12291;DHT22;6208;48.956;9.076;2023-02-23T00:46:51;10.80;99.90
12291;DHT22;6208;48.956;9.076;2023-02-23T00:49:35;10.90;99.90
12291;DHT22;6208;48.956;9.076;2023-02-23T00:52:19;10.90;99.90
12291;DHT22;6208;48.956;9.076;2023-02-23T00:55:05;11.00;99.90
12291;DHT22;6208;48.956;9.076;2023-02-23T00:57:50;10.40;99.90
12291;DHT22;6208;48.956;9.076;2023-02-23T01:00:34;10.20;99.90
12291;DHT22;6208;48.956;9.076;2023-02-23T01:03:26;9.90;99.90
12291;DHT22;6208;48.956;9.076;2023-02-23T01:06:12;9.70;99.90
12291;DHT22;6208;48.956;9.076;2023-02-23T01:08:56;9.60;99.90
12291;DHT22;6208;48.956;9.076;2023-02-23T01:11:41;9.60;99.90
12291;DHT22;6208;48.956;9.076;2023-02-23T01:14:29;10.00;99.90
12291;DHT22;6208;48.956;9.076;2023-02-23T01:17:14;9.70;99.90
12291;DHT22;6208;48.956;9.076;2023-02-23T01:19:58;10.00;99.90
12291;DHT22;6208;48.956;9.076;2023-02-23T01:22:44;9.90;99.90
12291;DHT22;6208;48.956;9.076;2023-02-23T01:25:29;9.90;99.90
12291;DHT22;6208;48.956;9.076;2023-02-23T01:28:14;9.80;99.90
12291;DHT22;6208;48.956;9.076;2023-02-23T01:30:58;9.50;99.90
12291;DHT22;6208;48.956;9.076;2023-02-23T01:33:42;10.00;99.90
12291;DHT22;6208;48.956;9.076;2023-02-23T01:36:27;9.80;99.90
12291;DHT22;6208;48.956;9.076;2023-02-23T01:39:17;9.60;99.90
12291;DHT22;6208;48.956;9.076;2023-02-23T01:42:02;9.80;99.90
12291;DHT22;6208;48.956;9.076;2023-02-23T01:47:33;10.30;99.90
12291;DHT22;6208;48.956;9.076;2023-02-23T01:50:18;10.40;99.90
12291;DHT22;6208;48.956;9.076;2023-02-23T01:53:02;11.00;99.90
12291;DHT22;6208;48.956;9.076;2023-02-23T01:55:52;10.60;99.90
12291;DHT22;6208;48.956;9.076;2023-02-23T01:58:45;10.80;99.90
12291;DHT22;6208;48.956;9.076;2023-02-23T02:01:30;10.50;99.90
12291;DHT22;6208;48.956;9.076;2023-02-23T02:04:15;10.60;99.90
12291;DHT22;6208;48.956;9.076;2023-02-23T02:07:00;10.70;99.90
12291;DHT22;6208;48.956;9.076;2023-02-23T02:09:46;10.80;99.90
12291;DHT22;6208;48.956;9.076;2023-02-23T02:12:55;10.60;99.90
12291;DHT22;6208;48.956;9.076;2023-02-23T02:16:01;10.50;99.90
12291;DHT22;6208;48.956;9.076;2023-02-23T02:22:05;10.50;99.90
12291;DHT22;6208;48.956;9.076;2023-02-23T02:25:25;10.60;99.90
12291;DHT22;6208;48.956;9.076;2023-02-23T02:41:11;10.40;99.90
12291;DHT22;6208;48.956;9.076;2023-02-23T02:44:10;10.50;99.90
12291;DHT22;6208;48.956;9.076;2023-02-23T02:47:03;10.50;99.90
12291;DHT22;6208;48.956;9.076;2023-02-23T02:52:52;10.50;99.90
12291;DHT22;6208;48.956;9.076;2023-02-23T02:55:40;10.50;99.90
12291;DHT22;6208;48.956;9.076;2023-02-23T02:58:26;10.00;99.90
12291;DHT22;6208;48.956;9.076;2023-02-23T03:01:14;9.70;99.90
12291;DHT22;6208;48.956;9.076;2023-02-23T03:04:21;9.80;99.90
12291;DHT22;6208;48.956;9.076;2023-02-23T03:07:39;9.90;99.90
12291;DHT22;6208;48.956;9.076;2023-02-23T03:11:04;10.20;99.90
12291;DHT22;6208;48.956;9.076;2023-02-23T03:17:45;9.80;99.90
12291;DHT22;6208;48.956;9.076;2023-02-23T03:20:53;9.50;99.90
12291;DHT22;6208;48.956;9.076;2023-02-23T03:25:09;9.30;99.90
12291;DHT22;6208;48.956;9.076;2023-02-23T03:28:02;9.80;99.90
12291;DHT22;6208;48.956;9.076;2023-02-23T03:31:21;10.10;99.90
12291;DHT22;6208;48.956;9.076;2023-02-23T03:34:34;10.00;99.90
12291;DHT22;6208;48.956;9.076;2023-02-23T03:37:45;10.20;99.90
12291;DHT22;6208;48.956;9.076;2023-02-23T03:40:50;10.30;99.90
12291;DHT22;6208;48.956;9.076;2023-02-23T03:44:02;10.30;99.90
12291;DHT22;6208;48.956;9.076;2023-02-23T03:47:07;10.50;99.90
12291;DHT22;6208;48.956;9.076;2023-02-23T03:50:21;10.60;99.90
12291;DHT22;6208;48.956;9.076;2023-02-23T03:53:32;10.50;99.90
12291;DHT22;6208;48.956;9.076;2023-02-23T03:56:40;10.10;99.90
12291;DHT22;6208;48.956;9.076;2023-02-23T03:59:53;9.70;99.90
12291;DHT22;6208;48.956;9.076;2023-02-23T04:02:58;9.60;99.90
12291;DHT22;6208;48.956;9.076;2023-02-23T04:06:06;9.70;99.90
12291;DHT22;6208;48.956;9.076;2023-02-23T04:09:10;9.40;99.90
12291;DHT22;6208;48.956;9.076;2023-02-23T04:15:33;9.90;99.90
12291;DHT22;6208;48.956;9.076;2023-02-23T04:18:31;10.00;99.90
12291;DHT22;6208;48.956;9.076;2023-02-23T04:21:16;9.90;99.90
12291;DHT22;6208;48.956;9.076;2023-02-23T04:24:00;9.90;99.90
12291;DHT22;6208;48.956;9.076;2023-02-23T04:26:44;10.00;99.90
12291;DHT22;6208;48.956;9.076;2023-02-23T04:29:28;10.10;99.90
12291;DHT22;6208;48.956;9.076;2023-02-23T04:32:14;10.10;99.90
12291;DHT22;6208;48.956;9.076;2023-02-23T04:34:58;10.00;99.90
12291;DHT22;6208;48.956;9.076;2023-02-23T04:37:43;10.10;99.90
12291;DHT22;6208;48.956;9.076;2023-02-23T04:40:27;10.30;99.90
12291;DHT22;6208;48.956;9.076;2023-02-23T04:43:12;10.30;99.90
12291;DHT22;6208;48.956;9.076;2023-02-23T04:45:56;10.30;99.90
12291;DHT22;6208;48.956;9.076;2023-02-23T04:48:40;10.20;99.90
12291;DHT22;6208;48.956;9.076;2023-02-23T04:51:24;10.30;99.90
12291;DHT22;6208;48.956;9.076;2023-02-23T04:54:13;10.40;99.90
12291;DHT22;6208;48.956;9.076;2023-02-23T04:56:58;10.40;99.90
12291;DHT22;6208;48.956;9.076;2023-02-23T04:59:42;10.30;99.90
12291;DHT22;6208;48.956;9.076;2023-02-23T05:02:26;10.40;99.90
12291;DHT22;6208;48.956;9.076;2023-02-23T05:05:11;10.00;99.90
12291;DHT22;6208;48.956;9.076;2023-02-23T05:07:56;9.70;99.90
12291;DHT22;6208;48.956;9.076;2023-02-23T05:10:40;10.00;99.90
12291;DHT22;6208;48.956;9.076;2023-02-23T05:13:24;10.20;99.90
12291;DHT22;6208;48.956;9.076;2023-02-23T05:16:08;10.20;99.90
12291;DHT22;6208;48.956;9.076;2023-02-23T05:18:52;10.30;99.90
12291;DHT22;6208;48.956;9.076;2023-02-23T05:21:36;10.40;99.90
12291;DHT22;6208;48.956;9.076;2023-02-23T05:24:21;10.40;99.90
12291;DHT22;6208;48.956;9.076;2023-02-23T05:27:06;10.40;99.90
12291;DHT22;6208;48.956;9.076;2023-02-23T05:29:51;10.60;99.90
12291;DHT22;6208;48.956;9.076;2023-02-23T05:32:35;10.50;99.90
12291;DHT22;6208;48.956;9.076;2023-02-23T05:35:19;10.50;99.90
12291;DHT22;6208;48.956;9.076;2023-02-23T05:38:03;10.40;99.90
12291;DHT22;6208;48.956;9.076;2023-02-23T05:40:47;10.30;99.90
12291;DHT22;6208;48.956;9.076;2023-02-23T05:43:32;10.30;99.90
12291;DHT22;6208;48.956;9.076;2023-02-23T05:46:18;10.30;99.90
12291;DHT22;6208;48.956;9.076;2023-02-23T05:49:03;10.10;99.90
12291;DHT22;6208;48.956;9.076;2023-02-23T05:51:47;10.00;99.90
12291;DHT22;6208;48.956;9.076;2023-02-23T05:54:32;9.90;99.90
12291;DHT22;6208;48.956;9.076;2023-02-23T05:57:16;9.90;99.90
12291;DHT22;6208;48.956;9.076;2023-02-23T06:00:00;9.90;99.90
12291;DHT22;6208;48.956;9.076;2023-02-23T06:02:45;7.50;99.90
12291;DHT22;6208;48.956;9.076;2023-02-23T06:05:29;9.80;99.90
12291;DHT22;6208;48.956;9.076;2023-02-23T06:08:13;9.60;99.90
12291;DHT22;6208;48.956;9.076;2023-02-23T06:10:58;9.50;99.90
12291;DHT22;6208;48.956;9.076;2023-02-23T06:13:42;9.20;99.90
12291;DHT22;6208;48.956;9.076;2023-02-23T06:16:26;9.20;99.90
12291;DHT22;6208;48.956;9.076;2023-02-23T06:19:10;9.30;99.90
12291;DHT22;6208;48.956;9.076;2023-02-23T06:21:55;9.50;99.90
12291;DHT22;6208;48.956;9.076;2023-02-23T06:24:39;9.50;99.90
12291;DHT22;6208;48.956;9.076;2023-02-23T06:27:23;9.50;99.90
12291;DHT22;6208;48.956;9.076;2023-02-23T06:30:07;9.50;99.90
12291;DHT22;6208;48.956;9.076;2023-02-23T06:32:52;9.60;99.90
12291;DHT22;6208;48.956;9.076;2023-02-23T06:35:36;9.70;99.90
12291;DHT22;6208;48.956;9.076;2023-02-23T06:38:21;9.70;99.90
12291;DHT22;6208;48.956;9.076;2023-02-23T06:41:09;9.90;99.90
12291;DHT22;6208;48.956;9.076;2023-02-23T06:43:53;10.10;99.90
12291;DHT22;6208;48.956;9.076;2023-02-23T06:46:38;10.10;99.90
12291;DHT22;6208;48.956;9.076;2023-02-23T06:49:22;10.20;99.90
12291;DHT22;6208;48.956;9.076;2023-02-23T06:52:07;10.30;99.90
12291;DHT22;6208;48.956;9.076;2023-02-23T06:54:52;10.20;99.90
12291;DHT22;6208;48.956;9.076;2023-02-23T06:57:36;10.30;99.90
12291;DHT22;6208;48.956;9.076;2023-02-23T07:00:21;10.30;99.90
12291;DHT22;6208;48.956;9.076;2023-02-23T07:03:06;10.30;99.90
12291;DHT22;6208;48.956;9.076;2023-02-23T07:05:51;10.20;99.90
12291;DHT22;6208;48.956;9.076;2023-02-23T07:08:35;10.20;99.90
12291;DHT22;6208;48.956;9.076;2023-02-23T07:11:19;10.20;99.90
12291;DHT22;6208;48.956;9.076;2023-02-23T07:14:04;10.40;99.90
12291;DHT22;6208;48.956;9.076;2023-02-23T07:16:48;10.40;99.90
12291;DHT22;6208;48.956;9.076;2023-02-23T07:19:32;10.50;99.90
12291;DHT22;6208;48.956;9.076;2023-02-23T07:22:16;10.70;99.90
12291;DHT22;6208;48.956;9.076;2023-02-23T07:25:00;10.40;99.90
12291;DHT22;6208;48.956;9.076;2023-02-23T07:27:44;10.30;99.90
12291;DHT22;6208;48.956;9.076;2023-02-23T07:30:29;10.30;99.90
12291;DHT22;6208;48.956;9.076;2023-02-23T07:33:13;10.20;99.90
12291;DHT22;6208;48.956;9.076;2023-02-23T07:35:57;10.30;99.90
12291;DHT22;6208;48.956;9.076;2023-02-23T07:38:41;10.40;99.90
12291;DHT22;6208;48.956;9.076;2023-02-23T07:41:25;10.50;99.90
12291;DHT22;6208;48.956;9.076;2023-02-23T07:44:10;10.60;99.90
12291;DHT22;6208;48.956;9.076;2023-02-23T07:46:54;10.60;99.90
12291;DHT22;6208;48.956;9.076;2023-02-23T07:49:38;10.60;99.90
12291;DHT22;6208;48.956;9.076;2023-02-23T07:52:23;10.60;99.90
12291;DHT22;6208;48.956;9.076;2023-02-23T07:55:08;10.60;99.90
12291;DHT22;6208;48.956;9.076;2023-02-23T07:57:53;10.70;99.90
12291;DHT22;6208;48.956;9.076;2023-02-23T08:00:37;10.60;99.90
12291;DHT22;6208;48.956;9.076;2023-02-23T08:03:22;10.80;99.90
12291;DHT22;6208;48.956;9.076;2023-02-23T08:06:07;10.90;99.90
12291;DHT22;6208;48.956;9.076;2023-02-23T08:08:51;10.60;99.90
12291;DHT22;6208;48.956;9.076;2023-02-23T08:11:35;9.70;99.90
12291;DHT22;6208;48.956;9.076;2023-02-23T08:14:19;9.20;99.90
12291;DHT22;6208;48.956;9.076;2023-02-23T08:17:06;9.00;99.90
12291;DHT22;6208;48.956;9.076;2023-02-23T08:19:51;9.30;99.90
12291;DHT22;6208;48.956;9.076;2023-02-23T08:22:34;9.50;99.90
12291;DHT22;6208;48.956;9.076;2023-02-23T08:25:19;9.70;99.90
12291;DHT22;6208;48.956;9.076;2023-02-23T08:28:04;9.90;99.90
12291;DHT22;6208;48.956;9.076;2023-02-23T08:30:49;10.00;99.90
12291;DHT22;6208;48.956;9.076;2023-02-23T08:33:33;10.20;99.90
12291;DHT22;6208;48.956;9.076;2023-02-23T08:36:18;10.60;99.90
12291;DHT22;6208;48.956;9.076;2023-02-23T08:39:03;10.60;99.90
12291;DHT22;6208;48.956;9.076;2023-02-23T08:41:50;10.10;99.90
12291;DHT22;6208;48.956;9.076;2023-02-23T08:44:35;9.60;99.90
12291;DHT22;6208;48.956;9.076;2023-02-23T08:47:19;9.80;99.90
12291;DHT22;6208;48.956;9.076;2023-02-23T08:50:08;10.10;99.90
12291;DHT22;6208;48.956;9.076;2023-02-23T08:52:54;10.50;99.90
12291;DHT22;6208;48.956;9.076;2023-02-23T08:55:38;10.70;99.90
12291;DHT22;6208;48.956;9.076;2023-02-23T08:58:22;10.90;99.90
12291;DHT22;6208;48.956;9.076;2023-02-23T09:01:06;10.70;99.90
12291;DHT22;6208;48.956;9.076;2023-02-23T09:03:50;10.80;99.90
12291;DHT22;6208;48.956;9.076;2023-02-23T09:06:36;10.60;99.90
12291;DHT22;6208;48.956;9.076;2023-02-23T09:09:20;10.90;99.90
12291;DHT22;6208;48.956;9.076;2023-02-23T09:12:04;10.90;99.90
12291;DHT22;6208;48.956;9.076;2023-02-23T09:14:48;11.10;99.90
12291;DHT22;6208;48.956;9.076;2023-02-23T09:17:34;11.20;99.90
12291;DHT22;6208;48.956;9.076;2023-02-23T09:20:19;11.40;99.90
12291;DHT22;6208;48.956;9.076;2023-02-23T09:23:10;11.30;99.90
12291;DHT22;6208;48.956;9.076;2023-02-23T09:25:54;11.30;99.90
12291;DHT22;6208;48.956;9.076;2023-02-23T09:28:39;11.20;99.90
12291;DHT22;6208;48.956;9.076;2023-02-23T09:31:24;11.00;99.90
12291;DHT22;6208;48.956;9.076;2023-02-23T09:34:08;10.90;99.90
12291;DHT22;6208;48.956;9.076;2023-02-23T09:36:53;11.10;99.90
12291;DHT22;6208;48.956;9.076;2023-02-23T09:39:38;10.70;99.90
12291;DHT22;6208;48.956;9.076;2023-02-23T09:42:57;10.90;99.90
12291;DHT22;6208;48.956;9.076;2023-02-23T09:45:45;11.20;99.90
12291;DHT22;6208;48.956;9.076;2023-02-23T09:48:33;11.60;99.90
12291;DHT22;6208;48.956;9.076;2023-02-23T09:51:19;11.90;99.90
12291;DHT22;6208;48.956;9.076;2023-02-23T09:54:05;11.70;99.90
12291;DHT22;6208;48.956;9.076;2023-02-23T09:56:52;11.20;99.90
12291;DHT22;6208;48.956;9.076;2023-02-23T09:59:38;11.70;99.90
12291;DHT22;6208;48.956;9.076;2023-02-23T10:05:39;12.20;99.90
12291;DHT22;6208;48.956;9.076;2023-02-23T10:14:44;12.20;99.90
12291;DHT22;6208;48.956;9.076;2023-02-23T10:20:48;11.70;99.90
12291;DHT22;6208;48.956;9.076;2023-02-23T10:23:44;12.00;99.90
12291;DHT22;6208;48.956;9.076;2023-02-23T10:26:41;12.30;99.90
12291;DHT22;6208;48.956;9.076;2023-02-23T10:29:54;12.10;99.90
12291;DHT22;6208;48.956;9.076;2023-02-23T10:32:48;12.30;99.90
12291;DHT22;6208;48.956;9.076;2023-02-23T10:35:33;11.90;99.90
12291;DHT22;6208;48.956;9.076;2023-02-23T10:38:18;11.90;99.90
12291;DHT22;6208;48.956;9.076;2023-02-23T10:41:02;12.40;99.90
12291;DHT22;6208;48.956;9.076;2023-02-23T10:43:47;12.60;99.90
12291;DHT22;6208;48.956;9.076;2023-02-23T10:46:39;12.70;99.90
12291;DHT22;6208;48.956;9.076;2023-02-23T10:49:27;12.90;99.90
12291;DHT22;6208;48.956;9.076;2023-02-23T10:52:22;13.00;99.90
12291;DHT22;6208;48.956;9.076;2023-02-23T10:55:27;13.10;99.90
12291;DHT22;6208;48.956;9.076;2023-02-23T10:58:17;12.70;99.90
12291;DHT22;6208;48.956;9.076;2023-02-23T11:04:34;12.80;99.90
12291;DHT22;6208;48.956;9.076;2023-02-23T11:07:27;12.90;99.90
12291;DHT22;6208;48.956;9.076;2023-02-23T11:10:24;12.90;99.90
12291;DHT22;6208;48.956;9.076;2023-02-23T11:13:23;13.00;99.90
12291;DHT22;6208;48.956;9.076;2023-02-23T11:16:29;13.30;99.90
12291;DHT22;6208;48.956;9.076;2023-02-23T11:19:26;13.20;99.90
12291;DHT22;6208;48.956;9.076;2023-02-23T11:22:18;13.20;99.90
12291;DHT22;6208;48.956;9.076;2023-02-23T11:25:22;13.00;99.90
12291;DHT22;6208;48.956;9.076;2023-02-23T11:28:16;13.00;99.90
12291;DHT22;6208;48.956;9.076;2023-02-23T11:33:53;12.70;99.90
12291;DHT22;6208;48.956;9.076;2023-02-23T11:36:38;12.60;99.90
12291;DHT22;6208;48.956;9.076;2023-02-23T11:39:23;12.70;99.90
12291;DHT22;6208;48.956;9.076;2023-02-23T11:42:17;12.90;99.90
12291;DHT22;6208;48.956;9.076;2023-02-23T11:45:16;13.10;99.90
12291;DHT22;6208;48.956;9.076;2023-02-23T11:48:04;13.10;99.90
12291;DHT22;6208;48.956;9.076;2023-02-23T11:50:49;13.10;99.90
12291;DHT22;6208;48.956;9.076;2023-02-23T11:53:37;13.00;99.70
12291;DHT22;6208;48.956;9.076;2023-02-23T11:56:24;12.90;99.50
12291;DHT22;6208;48.956;9.076;2023-02-23T11:59:16;13.10;99.40
12291;DHT22;6208;48.956;9.076;2023-02-23T12:02:22;13.40;99.90
12291;DHT22;6208;48.956;9.076;2023-02-23T12:05:16;13.70;99.60
12291;DHT22;6208;48.956;9.076;2023-02-23T12:10:56;13.60;97.00
12291;DHT22;6208;48.956;9.076;2023-02-23T12:13:49;13.70;97.00
12291;DHT22;6208;48.956;9.076;2023-02-23T12:16:41;13.80;97.80
12291;DHT22;6208;48.956;9.076;2023-02-23T12:19:46;13.90;95.50
12291;DHT22;6208;48.956;9.076;2023-02-23T12:22:35;14.10;94.30
12291;DHT22;6208;48.956;9.076;2023-02-23T12:28:36;13.90;94.50
12291;DHT22;6208;48.956;9.076;2023-02-23T12:31:40;13.90;95.70
12291;DHT22;6208;48.956;9.076;2023-02-23T12:37:41;14.40;95.80
12291;DHT22;6208;48.956;9.076;2023-02-23T12:40:34;14.50;95.40
12291;DHT22;6208;48.956;9.076;2023-02-23T12:43:47;14.50;95.50
12291;DHT22;6208;48.956;9.076;2023-02-23T12:46:38;14.60;95.70
12291;DHT22;6208;48.956;9.076;2023-02-23T12:49:38;14.30;95.10
12291;DHT22;6208;48.956;9.076;2023-02-23T12:52:31;14.40;95.80
12291;DHT22;6208;48.956;9.076;2023-02-23T12:55:24;14.50;96.30
12291;DHT22;6208;48.956;9.076;2023-02-23T12:58:45;14.10;95.30
12291;DHT22;6208;48.956;9.076;2023-02-23T13:05:11;14.30;96.30
12291;DHT22;6208;48.956;9.076;2023-02-23T13:08:17;14.40;96.40
12291;DHT22;6208;48.956;9.076;2023-02-23T13:14:01;14.30;96.50
12291;DHT22;6208;48.956;9.076;2023-02-23T13:16:50;14.20;97.00
12291;DHT22;6208;48.956;9.076;2023-02-23T13:20:00;14.10;97.50
12291;DHT22;6208;48.956;9.076;2023-02-23T13:22:50;14.00;97.40
12291;DHT22;6208;48.956;9.076;2023-02-23T13:25:59;14.00;97.60
12291;DHT22;6208;48.956;9.076;2023-02-23T13:29:08;13.90;97.70
12291;DHT22;6208;48.956;9.076;2023-02-23T13:31:59;13.80;97.80
12291;DHT22;6208;48.956;9.076;2023-02-23T13:35:04;13.90;97.80
12291;DHT22;6208;48.956;9.076;2023-02-23T13:37:56;14.00;98.30
12291;DHT22;6208;48.956;9.076;2023-02-23T13:44:02;14.10;98.20
12291;DHT22;6208;48.956;9.076;2023-02-23T13:47:03;14.20;98.20
12291;DHT22;6208;48.956;9.076;2023-02-23T13:52:53;14.30;97.80
12291;DHT22;6208;48.956;9.076;2023-02-23T13:55:47;14.30;97.20
12291;DHT22;6208;48.956;9.076;2023-02-23T13:58:32;14.20;97.60
12291;DHT22;6208;48.956;9.076;2023-02-23T14:01:21;14.30;97.40
12291;DHT22;6208;48.956;9.076;2023-02-23T14:04:11;14.40;97.20
12291;DHT22;6208;48.956;9.076;2023-02-23T14:07:12;14.50;97.30
12291;DHT22;6208;48.956;9.076;2023-02-23T14:10:05;14.60;97.10
12291;DHT22;6208;48.956;9.076;2023-02-23T14:21:50;14.60;96.00
12291;DHT22;6208;48.956;9.076;2023-02-23T14:24:40;14.60;96.00
12291;DHT22;6208;48.956;9.076;2023-02-23T14:27:42;14.60;95.80
12291;DHT22;6208;48.956;9.076;2023-02-23T14:30:49;14.40;95.70
12291;DHT22;6208;48.956;9.076;2023-02-23T14:39:21;14.50;94.80
12291;DHT22;6208;48.956;9.076;2023-02-23T14:42:06;14.20;94.40
12291;DHT22;6208;48.956;9.076;2023-02-23T14:44:52;14.30;94.90
12291;DHT22;6208;48.956;9.076;2023-02-23T14:47:44;14.30;95.00
12291;DHT22;6208;48.956;9.076;2023-02-23T14:50:31;14.40;95.10
12291;DHT22;6208;48.956;9.076;2023-02-23T14:53:19;14.30;94.70
12291;DHT22;6208;48.956;9.076;2023-02-23T14:56:17;14.40;94.60
12291;DHT22;6208;48.956;9.076;2023-02-23T14:59:06;14.40;94.90
12291;DHT22;6208;48.956;9.076;2023-02-23T15:01:50;14.40;94.70
12291;DHT22;6208;48.956;9.076;2023-02-23T15:04:36;14.40;95.20
12291;DHT22;6208;48.956;9.076;2023-02-23T15:07:38;14.30;94.80
12291;DHT22;6208;48.956;9.076;2023-02-23T15:10:38;14.30;95.20
12291;DHT22;6208;48.956;9.076;2023-02-23T15:13:34;14.10;94.90
12291;DHT22;6208;48.956;9.076;2023-02-23T15:16:29;14.00;96.00
12291;DHT22;6208;48.956;9.076;2023-02-23T15:19:18;14.10;96.50
12291;DHT22;6208;48.956;9.076;2023-02-23T15:22:04;14.00;96.50
12291;DHT22;6208;48.956;9.076;2023-02-23T15:24:49;13.70;97.50
12291;DHT22;6208;48.956;9.076;2023-02-23T15:27:38;13.70;98.40
12291;DHT22;6208;48.956;9.076;2023-02-23T15:30:30;13.60;98.70
12291;DHT22;6208;48.956;9.076;2023-02-23T15:33:16;13.60;99.40
12291;DHT22;6208;48.956;9.076;2023-02-23T15:36:15;13.40;99.30
12291;DHT22;6208;48.956;9.076;2023-02-23T15:39:04;13.10;99.90
12291;DHT22;6208;48.956;9.076;2023-02-23T15:41:49;13.20;99.90
12291;DHT22;6208;48.956;9.076;2023-02-23T15:44:33;13.30;99.90
12291;DHT22;6208;48.956;9.076;2023-02-23T15:47:23;13.30;99.90
12291;DHT22;6208;48.956;9.076;2023-02-23T15:50:17;13.40;99.90
12291;DHT22;6208;48.956;9.076;2023-02-23T15:53:06;13.00;99.90
12291;DHT22;6208;48.956;9.076;2023-02-23T15:56:08;13.00;99.90
12291;DHT22;6208;48.956;9.076;2023-02-23T15:59:01;16.50;99.90
12291;DHT22;6208;48.956;9.076;2023-02-23T16:01:46;12.50;99.90
12291;DHT22;6208;48.956;9.076;2023-02-23T16:04:37;12.40;99.90
12291;DHT22;6208;48.956;9.076;2023-02-23T16:07:26;12.20;99.90
12291;DHT22;6208;48.956;9.076;2023-02-23T16:10:22;12.10;99.90
12291;DHT22;6208;48.956;9.076;2023-02-23T16:13:09;12.10;99.90
12291;DHT22;6208;48.956;9.076;2023-02-23T16:15:56;12.40;99.90
12291;DHT22;6208;48.956;9.076;2023-02-23T16:18:41;12.70;99.90
12291;DHT22;6208;48.956;9.076;2023-02-23T16:21:28;12.90;99.90
12291;DHT22;6208;48.956;9.076;2023-02-23T16:24:16;12.80;99.90
12291;DHT22;6208;48.956;9.076;2023-02-23T16:27:05;12.80;99.90
12291;DHT22;6208;48.956;9.076;2023-02-23T16:29:55;12.50;99.90
12291;DHT22;6208;48.956;9.076;2023-02-23T16:32:43;12.30;99.90
12291;DHT22;6208;48.956;9.076;2023-02-23T16:35:36;12.30;99.90
12291;DHT22;6208;48.956;9.076;2023-02-23T16:41:16;11.90;99.90
12291;DHT22;6208;48.956;9.076;2023-02-23T16:44:04;12.00;99.90
12291;DHT22;6208;48.956;9.076;2023-02-23T16:49:45;12.10;99.90
12291;DHT22;6208;48.956;9.076;2023-02-23T16:52:29;11.90;99.90
12291;DHT22;6208;48.956;9.076;2023-02-23T16:55:14;12.00;99.90
12291;DHT22;6208;48.956;9.076;2023-02-23T16:58:02;12.20;99.90
12291;DHT22;6208;48.956;9.076;2023-02-23T17:00:46;12.40;99.90
12291;DHT22;6208;48.956;9.076;2023-02-23T17:03:32;12.50;99.90
12291;DHT22;6208;48.956;9.076;2023-02-23T17:06:16;12.30;99.90
12291;DHT22;6208;48.956;9.076;2023-02-23T17:09:00;12.50;99.90
12291;DHT22;6208;48.956;9.076;2023-02-23T17:11:44;12.50;99.90
12291;DHT22;6208;48.956;9.076;2023-02-23T17:14:29;12.50;99.90
12291;DHT22;6208;48.956;9.076;2023-02-23T17:17:18;12.60;99.90
12291;DHT22;6208;48.956;9.076;2023-02-23T17:20:02;12.50;99.90
12291;DHT22;6208;48.956;9.076;2023-02-23T17:22:48;12.60;99.90
12291;DHT22;6208;48.956;9.076;2023-02-23T17:25:32;12.50;99.90
12291;DHT22;6208;48.956;9.076;2023-02-23T17:28:16;12.60;99.90
12291;DHT22;6208;48.956;9.076;2023-02-23T17:31:01;12.70;99.90
12291;DHT22;6208;48.956;9.076;2023-02-23T17:33:46;12.70;99.90
12291;DHT22;6208;48.956;9.076;2023-02-23T17:36:30;12.80;99.90
12291;DHT22;6208;48.956;9.076;2023-02-23T17:39:15;12.60;99.90
12291;DHT22;6208;48.956;9.076;2023-02-23T17:41:59;12.30;99.90
12291;DHT22;6208;48.956;9.076;2023-02-23T17:44:43;11.80;99.90
12291;DHT22;6208;48.956;9.076;2023-02-23T17:47:29;11.60;99.90
12291;DHT22;6208;48.956;9.076;2023-02-23T17:50:14;11.50;99.90
12291;DHT22;6208;48.956;9.076;2023-02-23T17:52:58;11.60;99.90
12291;DHT22;6208;48.956;9.076;2023-02-23T17:55:42;11.50;99.90
12291;DHT22;6208;48.956;9.076;2023-02-23T17:58:26;11.50;99.90
12291;DHT22;6208;48.956;9.076;2023-02-23T18:01:10;11.60;99.90
12291;DHT22;6208;48.956;9.076;2023-02-23T18:03:54;11.70;99.90
12291;DHT22;6208;48.956;9.076;2023-02-23T18:06:41;11.30;99.90
12291;DHT22;6208;48.956;9.076;2023-02-23T18:09:26;11.40;99.90
12291;DHT22;6208;48.956;9.076;2023-02-23T18:12:11;11.40;99.90
12291;DHT22;6208;48.956;9.076;2023-02-23T18:14:55;11.20;99.90
12291;DHT22;6208;48.956;9.076;2023-02-23T18:17:40;11.30;99.90
12291;DHT22;6208;48.956;9.076;2023-02-23T18:20:24;11.40;99.90
12291;DHT22;6208;48.956;9.076;2023-02-23T18:23:09;11.40;99.90
12291;DHT22;6208;48.956;9.076;2023-02-23T18:25:53;11.90;99.90
12291;DHT22;6208;48.956;9.076;2023-02-23T18:28:37;12.10;99.90
12291;DHT22;6208;48.956;9.076;2023-02-23T18:31:26;12.20;99.90
12291;DHT22;6208;48.956;9.076;2023-02-23T18:34:13;12.30;99.90
12291;DHT22;6208;48.956;9.076;2023-02-23T18:36:58;12.40;99.90
12291;DHT22;6208;48.956;9.076;2023-02-23T18:39:45;12.40;99.90
12291;DHT22;6208;48.956;9.076;2023-02-23T18:42:29;12.40;99.90
12291;DHT22;6208;48.956;9.076;2023-02-23T18:45:14;11.80;99.90
12291;DHT22;6208;48.956;9.076;2023-02-23T18:47:59;11.70;99.90
12291;DHT22;6208;48.956;9.076;2023-02-23T18:50:43;11.80;99.90
12291;DHT22;6208;48.956;9.076;2023-02-23T18:53:28;12.00;99.90
12291;DHT22;6208;48.956;9.076;2023-02-23T18:56:14;11.90;99.90
12291;DHT22;6208;48.956;9.076;2023-02-23T18:58:59;11.20;99.90
12291;DHT22;6208;48.956;9.076;2023-02-23T19:01:44;11.00;99.90
12291;DHT22;6208;48.956;9.076;2023-02-23T19:04:30;11.10;99.90
12291;DHT22;6208;48.956;9.076;2023-02-23T19:07:15;11.00;99.90
12291;DHT22;6208;48.956;9.076;2023-02-23T19:10:01;10.80;99.90
12291;DHT22;6208;48.956;9.076;2023-02-23T19:12:45;10.70;99.90
12291;DHT22;6208;48.956;9.076;2023-02-23T19:15:29;10.70;99.90
12291;DHT22;6208;48.956;9.076;2023-02-23T19:18:14;10.90;99.90
12291;DHT22;6208;48.956;9.076;2023-02-23T19:20:59;11.30;99.90
12291;DHT22;6208;48.956;9.076;2023-02-23T19:23:43;11.60;99.90
12291;DHT22;6208;48.956;9.076;2023-02-23T19:26:29;11.60;99.90
12291;DHT22;6208;48.956;9.076;2023-02-23T19:29:14;11.60;99.90
12291;DHT22;6208;48.956;9.076;2023-02-23T19:31:59;11.60;99.90
12291;DHT22;6208;48.956;9.076;2023-02-23T19:34:43;11.50;99.90
12291;DHT22;6208;48.956;9.076;2023-02-23T19:37:29;11.60;99.90
12291;DHT22;6208;48.956;9.076;2023-02-23T19:40:15;11.30;99.90